Time;durP1;ratioP1;P1;durP2;ratioP2;P2;SDS_P1;SDS_P2;PMS_P1;PMS_P2;Temp;Humidity;BMP_temperature;BMP_pressure;BME280_temperature;BME280_humidity;BME280_pressure;Samples;Min_cycle;Max_cycle;Signal;HPM_P1;HPM_P2
2022/05/16 00:01:48;;;;;;;10.57;4.10;;;13.80;99.90;;;;;;5076841;28;20566;-81
2022/05/16 00:04:13;;;;;;;8.60;4.10;;;13.80;99.90;;;;;;5094137;28;20047;-86
2022/05/16 00:06:39;;;;;;;14.82;4.75;;;13.80;99.90;;;;;;5094359;28;20075;-82
2022/05/16 00:09:05;;;;;;;10.20;3.83;;;13.70;99.90;;;;;;5094597;28;20125;-82
2022/05/16 00:11:31;;;;;;;10.63;3.63;;;13.70;99.90;;;;;;5094514;28;20040;-81
2022/05/16 00:13:57;;;;;;;13.18;4.43;;;13.70;99.90;;;;;;5076644;28;20048;-81
2022/05/16 00:16:23;;;;;;;15.50;4.28;;;13.70;99.90;;;;;;5094208;28;20424;-82
2022/05/16 00:18:49;;;;;;;14.63;4.43;;;13.70;99.90;;;;;;5076419;28;20048;-82
2022/05/16 00:21:15;;;;;;;12.93;4.75;;;13.70;99.90;;;;;;5076296;28;20059;-82
2022/05/16 00:23:44;;;;;;;12.13;4.13;;;13.70;99.90;;;;;;5094041;28;20039;-82
2022/05/16 00:26:09;;;;;;;10.60;4.07;;;13.70;99.90;;;;;;5076263;28;20405;-81
2022/05/16 00:28:35;;;;;;;15.05;3.83;;;13.70;99.90;;;;;;5075700;28;20052;-81
2022/05/16 00:31:01;;;;;;;13.80;4.53;;;13.60;99.90;;;;;;5094040;28;20046;-82
2022/05/16 00:33:26;;;;;;;11.20;4.25;;;13.60;99.90;;;;;;5093167;28;20040;-81
2022/05/16 00:35:52;;;;;;;9.88;4.22;;;13.60;99.90;;;;;;5091934;28;20497;-82
2022/05/16 00:38:17;;;;;;;10.90;4.22;;;13.60;99.90;;;;;;5092883;28;20060;-81
2022/05/16 00:40:46;;;;;;;13.57;4.40;;;13.60;99.90;;;;;;5093985;28;20419;-83
2022/05/16 00:43:13;;;;;;;11.05;4.20;;;13.60;99.90;;;;;;5059185;28;20059;-82
2022/05/16 00:45:40;;;;;;;11.25;3.75;;;13.50;99.90;;;;;;5093756;28;20050;-82
2022/05/16 00:48:06;;;;;;;13.68;4.13;;;13.50;99.90;;;;;;5075352;28;20063;-82
2022/05/16 00:50:38;;;;;;;11.73;4.20;;;13.50;99.90;;;;;;5093508;28;20509;-82
2022/05/16 00:53:05;;;;;;;15.25;3.88;;;13.50;99.90;;;;;;5093404;28;20052;-81
2022/05/16 00:55:35;;;;;;;12.25;4.05;;;13.50;99.90;;;;;;5093801;28;20390;-81
2022/05/16 00:58:07;;;;;;;12.25;4.13;;;13.50;99.90;;;;;;5059028;28;20051;-81
2022/05/16 01:00:35;;;;;;;11.30;4.10;;;13.50;99.90;;;;;;5093471;28;20089;-85
2022/05/16 01:05:54;;;;;;;14.55;4.40;;;13.40;99.90;;;;;;5074789;28;20052;-82
2022/05/16 01:08:24;;;;;;;14.02;4.28;;;13.30;99.90;;;;;;5092352;28;20054;-82
2022/05/16 01:10:51;;;;;;;12.00;4.20;;;13.20;99.90;;;;;;5075648;28;20054;-81
2022/05/16 01:13:16;;;;;;;11.98;4.32;;;13.30;99.90;;;;;;5093466;28;20492;-82
2022/05/16 01:15:45;;;;;;;12.20;3.63;;;13.30;99.90;;;;;;5092922;28;20048;-81
2022/05/16 01:18:14;;;;;;;13.25;3.63;;;13.20;99.90;;;;;;5092988;28;20044;-81
2022/05/16 01:20:51;;;;;;;15.63;4.00;;;13.20;99.90;;;;;;5075511;28;20048;-81
2022/05/16 01:23:21;;;;;;;12.38;4.35;;;13.20;99.90;;;;;;5075388;28;20205;-82
2022/05/16 01:25:49;;;;;;;10.77;4.00;;;13.20;99.90;;;;;;5093000;28;20036;-81
2022/05/16 01:28:18;;;;;;;11.75;4.22;;;13.20;99.90;;;;;;5093118;28;20048;-81
2022/05/16 01:30:46;;;;;;;12.77;4.43;;;13.20;99.90;;;;;;5074563;28;20048;-83
2022/05/16 01:33:23;;;;;;;12.60;4.00;;;13.10;99.90;;;;;;5058581;28;20097;-81
2022/05/16 01:35:49;;;;;;;14.02;4.28;;;13.20;99.90;;;;;;5093078;28;20131;-83
2022/05/16 01:38:19;;;;;;;12.20;4.28;;;13.20;99.90;;;;;;5074467;28;20136;-83
2022/05/16 01:40:57;;;;;;;12.75;4.30;;;13.20;99.90;;;;;;5074814;28;20098;-82
2022/05/16 01:43:27;;;;;;;12.48;4.50;;;13.20;99.90;;;;;;5074661;28;20040;-81
2022/05/16 01:45:52;;;;;;;12.93;4.28;;;13.20;99.90;;;;;;5074442;28;20518;-82
2022/05/16 01:48:20;;;;;;;10.18;4.07;;;13.10;99.90;;;;;;5092870;28;20071;-81
2022/05/16 01:50:50;;;;;;;12.05;4.15;;;13.10;99.90;;;;;;5092625;28;20127;-82
2022/05/16 01:53:17;;;;;;;11.77;4.28;;;13.10;99.90;;;;;;5092499;28;20401;-81
2022/05/16 01:55:43;;;;;;;15.38;4.00;;;13.10;99.90;;;;;;5057553;28;20060;-83
2022/05/16 01:58:09;;;;;;;15.30;4.05;;;13.20;99.90;;;;;;5057733;28;20441;-81
2022/05/16 02:00:36;;;;;;;9.73;4.20;;;13.00;99.90;;;;;;5074596;28;20040;-81
2022/05/16 02:03:05;;;;;;;12.20;4.05;;;13.00;99.90;;;;;;5092568;28;20040;-80
2022/05/16 02:05:31;;;;;;;13.50;4.35;;;13.10;99.90;;;;;;5074111;28;20064;-81
2022/05/16 02:07:57;;;;;;;11.30;4.00;;;13.00;99.90;;;;;;5092540;28;20417;-81
2022/05/16 02:10:24;;;;;;;14.85;4.68;;;12.90;99.90;;;;;;5074625;28;20048;-81
2022/05/16 02:12:57;;;;;;;13.20;4.55;;;12.90;99.90;;;;;;5092165;28;20404;-83
2022/05/16 02:15:24;;;;;;;16.92;4.40;;;12.90;99.90;;;;;;5092482;28;20081;-81
2022/05/16 02:17:50;;;;;;;12.10;4.05;;;12.80;99.90;;;;;;5092466;28;20189;-82
2022/05/16 02:20:17;;;;;;;16.50;4.32;;;12.70;99.90;;;;;;5073652;28;20405;-81
2022/05/16 02:25:31;;;;;;;13.13;4.30;;;12.70;99.90;;;;;;5092141;28;20067;-81
2022/05/16 02:27:57;;;;;;;10.00;4.30;;;12.70;99.90;;;;;;5078356;28;20524;-82
2022/05/16 02:30:22;;;;;;;12.02;4.70;;;12.70;99.90;;;;;;5096546;28;20087;-81
2022/05/16 02:32:49;;;;;;;10.77;4.07;;;12.70;99.90;;;;;;5078312;28;20044;-82
2022/05/16 02:35:15;;;;;;;11.93;4.43;;;12.70;99.90;;;;;;5078462;28;20052;-81
2022/05/16 02:37:41;;;;;;;9.00;3.92;;;12.70;99.90;;;;;;5078179;28;20044;-82
2022/05/16 02:40:08;;;;;;;12.02;4.20;;;12.60;99.90;;;;;;5095901;28;20044;-82
2022/05/16 02:42:35;;;;;;;10.77;4.85;;;12.60;99.90;;;;;;5078412;28;20082;-81
2022/05/16 02:45:01;;;;;;;12.25;4.32;;;12.60;99.90;;;;;;5078235;28;20044;-82
2022/05/16 02:47:27;;;;;;;12.77;4.13;;;12.60;99.90;;;;;;5078228;28;20059;-82
2022/05/16 02:49:53;;;;;;;10.30;4.05;;;12.60;99.90;;;;;;5096080;28;20044;-81
2022/05/16 02:52:19;;;;;;;12.57;4.32;;;12.50;99.90;;;;;;5095892;28;20040;-81
2022/05/16 02:54:45;;;;;;;15.00;4.32;;;12.50;99.90;;;;;;5095855;28;20051;-81
2022/05/16 02:57:11;;;;;;;11.18;4.07;;;12.70;99.90;;;;;;5096157;28;20040;-81
2022/05/16 02:59:37;;;;;;;12.20;4.22;;;12.60;99.90;;;;;;5078096;28;20044;-81
2022/05/16 03:02:06;;;;;;;15.43;4.50;;;12.50;99.90;;;;;;5095902;28;20040;-80
2022/05/16 03:04:32;;;;;;;9.85;4.25;;;12.60;99.90;;;;;;5077352;28;20532;-81
2022/05/16 03:07:01;;;;;;;11.60;4.13;;;12.50;99.90;;;;;;5077419;28;20093;-81
2022/05/16 03:09:28;;;;;;;9.20;3.70;;;12.50;99.90;;;;;;5095557;28;20411;-81
2022/05/16 03:11:54;;;;;;;9.65;3.78;;;12.50;99.90;;;;;;5077578;28;20501;-80
2022/05/16 03:14:20;;;;;;;12.13;4.45;;;12.50;99.90;;;;;;5095706;28;20093;-82
2022/05/16 03:16:46;;;;;;;13.35;4.47;;;12.40;99.90;;;;;;5095385;28;20483;-81
2022/05/16 03:19:13;;;;;;;14.38;4.47;;;12.50;99.90;;;;;;5095604;28;20055;-81
2022/05/16 03:21:38;;;;;;;16.75;4.30;;;12.40;99.90;;;;;;5095257;28;20040;-81
2022/05/16 03:24:07;;;;;;;15.85;4.18;;;12.30;99.90;;;;;;5093285;28;20493;-82
2022/05/16 03:26:34;;;;;;;14.95;4.10;;;12.30;99.90;;;;;;5095334;28;20464;-81
2022/05/16 03:29:00;;;;;;;8.80;3.60;;;12.30;99.90;;;;;;5077273;28;20062;-81
2022/05/16 03:31:25;;;;;;;11.48;3.60;;;12.30;99.90;;;;;;5077199;28;20131;-81
2022/05/16 03:33:52;;;;;;;12.05;3.75;;;12.30;99.90;;;;;;5094885;28;20102;-82
2022/05/16 03:36:18;;;;;;;12.73;4.10;;;12.30;99.90;;;;;;5094888;28;20040;-82
2022/05/16 03:41:28;;;;;;;15.05;4.28;;;12.30;99.90;;;;;;5077226;28;20056;-81
2022/05/16 03:43:54;;;;;;;12.40;4.00;;;12.20;99.90;;;;;;5094260;28;20086;-80
2022/05/16 03:46:20;;;;;;;12.93;3.83;;;12.20;99.90;;;;;;5095047;28;20484;-82
2022/05/16 03:48:45;;;;;;;8.25;3.55;;;12.30;99.90;;;;;;5093646;28;20047;-82
2022/05/16 03:51:13;;;;;;;11.13;3.60;;;12.30;99.90;;;;;;5077040;28;20040;-82
2022/05/16 03:53:46;;;;;;;10.80;3.47;;;12.30;99.90;;;;;;5076029;28;20056;-80
2022/05/16 03:56:16;;;;;;;16.35;4.18;;;12.30;99.90;;;;;;5077028;28;20062;-81
2022/05/16 03:58:42;;;;;;;8.73;3.53;;;12.20;99.90;;;;;;5077361;28;20119;-80
2022/05/16 04:01:08;;;;;;;11.20;3.72;;;12.20;99.90;;;;;;5094681;28;20048;-80
2022/05/16 04:03:35;;;;;;;14.45;3.92;;;12.20;99.90;;;;;;5076401;28;20172;-81
2022/05/16 04:06:00;;;;;;;9.68;3.60;;;12.40;99.90;;;;;;5094428;28;20052;-81
2022/05/16 04:08:28;;;;;;;11.45;3.70;;;12.20;99.90;;;;;;5094615;28;20052;-81
2022/05/16 04:10:55;;;;;;;13.18;3.83;;;12.20;99.90;;;;;;5094754;28;20062;-80
2022/05/16 04:13:20;;;;;;;9.93;3.53;;;12.20;99.90;;;;;;5094578;28;20409;-81
2022/05/16 04:15:46;;;;;;;13.07;3.63;;;12.30;99.90;;;;;;5094528;28;20040;-80
2022/05/16 04:18:12;;;;;;;11.85;4.22;;;12.40;99.90;;;;;;5076550;28;20131;-81
2022/05/16 04:20:37;;;;;;;10.35;3.60;;;12.30;99.90;;;;;;5093182;28;20432;-81
2022/05/16 04:23:03;;;;;;;9.85;3.25;;;12.50;99.90;;;;;;5076551;28;20048;-81
2022/05/16 04:25:29;;;;;;;11.35;3.60;;;12.40;99.90;;;;;;5094366;28;20389;-81
2022/05/16 04:27:55;;;;;;;16.92;3.70;;;12.40;99.90;;;;;;5094350;28;20044;-82
2022/05/16 04:30:20;;;;;;;10.02;3.50;;;12.50;99.90;;;;;;5094205;28;20389;-81
2022/05/16 04:32:46;;;;;;;11.43;3.67;;;12.60;99.90;;;;;;5075302;28;20413;-81
2022/05/16 04:35:12;;;;;;;10.32;3.40;;;12.50;99.90;;;;;;5094209;28;20477;-81
2022/05/16 04:37:38;;;;;;;13.38;3.95;;;12.50;99.90;;;;;;5075474;28;20079;-81
2022/05/16 04:40:06;;;;;;;11.57;3.13;;;12.50;99.90;;;;;;5094115;28;20051;-81
2022/05/16 04:42:41;;;;;;;10.30;3.40;;;12.60;99.90;;;;;;5093941;28;20054;-81
2022/05/16 04:45:19;;;;;;;10.15;3.22;;;12.60;99.90;;;;;;5093659;28;20485;-82
2022/05/16 04:47:48;;;;;;;13.68;3.67;;;12.60;99.90;;;;;;5075962;28;20044;-81
2022/05/16 04:50:15;;;;;;;15.63;3.92;;;12.70;99.90;;;;;;5092645;28;20044;-81
2022/05/16 04:52:41;;;;;;;12.07;3.55;;;12.70;99.90;;;;;;5093806;28;20040;-81
2022/05/16 04:55:08;;;;;;;13.45;3.60;;;12.70;99.90;;;;;;5075512;28;20066;-81
2022/05/16 04:57:34;;;;;;;12.80;3.83;;;12.70;99.90;;;;;;5075901;28;20055;-81
2022/05/16 04:59:59;;;;;;;10.30;3.55;;;12.70;99.90;;;;;;5058764;28;20485;-80
2022/05/16 05:02:25;;;;;;;11.50;3.45;;;12.70;99.90;;;;;;5075651;28;20481;-82
2022/05/16 05:04:51;;;;;;;10.32;3.25;;;12.80;99.90;;;;;;5093137;28;20052;-81
2022/05/16 05:07:18;;;;;;;12.10;3.58;;;12.80;99.90;;;;;;5093583;28;20584;-81
2022/05/16 05:15:15;;;;;;;14.15;3.42;;;13.10;99.90;;;;;;5075104;28;20052;-82
2022/05/16 05:17:41;;;;;;;13.18;3.25;;;13.10;99.90;;;;;;5093190;28;20413;-83
2022/05/16 05:20:13;;;;;;;10.38;3.58;;;13.20;99.90;;;;;;5093275;28;20073;-83
2022/05/16 05:22:40;;;;;;;11.45;3.72;;;13.20;99.90;;;;;;5093187;28;20044;-82
2022/05/16 05:25:07;;;;;;;9.48;3.20;;;13.40;99.90;;;;;;5074980;28;20063;-81
2022/05/16 05:27:33;;;;;;;12.23;3.60;;;13.50;99.90;;;;;;5075234;28;20089;-81
2022/05/16 05:29:58;;;;;;;12.95;4.00;;;13.60;99.90;;;;;;5092868;28;20106;-82
2022/05/16 05:32:24;;;;;;;11.02;3.28;;;13.70;99.90;;;;;;5093069;28;20073;-83
2022/05/16 05:34:50;;;;;;;13.35;3.80;;;13.80;99.90;;;;;;5075109;28;20044;-83
2022/05/16 05:37:16;;;;;;;7.93;3.08;;;13.90;99.90;;;;;;5075199;28;20165;-81
2022/05/16 05:39:42;;;;;;;7.13;3.13;;;14.10;99.90;;;;;;5074847;28;20447;-81
2022/05/16 05:42:08;;;;;;;6.70;2.90;;;14.20;99.90;;;;;;5074901;28;20127;-82
2022/05/16 05:44:33;;;;;;;15.20;3.65;;;14.30;99.90;;;;;;5074762;28;20428;-82
2022/05/16 05:47:00;;;;;;;8.88;3.03;;;14.40;99.90;;;;;;5074825;28;20477;-82
2022/05/16 05:49:25;;;;;;;15.32;3.13;;;14.50;99.90;;;;;;5093214;28;20044;-81
2022/05/16 05:51:51;;;;;;;10.77;3.38;;;14.60;99.90;;;;;;5074803;28;20067;-83
2022/05/16 05:54:16;;;;;;;11.70;3.05;;;14.70;99.90;;;;;;5074916;28;20082;-82
2022/05/16 05:56:42;;;;;;;10.45;3.30;;;14.90;99.90;;;;;;5075135;28;20040;-81
2022/05/16 05:59:08;;;;;;;11.65;3.40;;;15.00;99.90;;;;;;5092697;28;20052;-82
2022/05/16 06:01:33;;;;;;;10.93;3.30;;;15.10;99.90;;;;;;5074485;28;20040;-81
2022/05/16 06:03:59;;;;;;;9.20;3.15;;;15.20;99.90;;;;;;5092810;28;20040;-83
2022/05/16 06:06:25;;;;;;;10.65;3.20;;;15.30;99.90;;;;;;5074451;28;20448;-82
2022/05/16 06:08:50;;;;;;;9.50;3.15;;;15.50;99.90;;;;;;5092615;28;20056;-82
2022/05/16 06:11:16;;;;;;;13.65;3.47;;;15.50;99.90;;;;;;5075062;28;20169;-81
2022/05/16 06:13:42;;;;;;;9.57;3.03;;;15.70;99.90;;;;;;5092542;28;20127;-82
2022/05/16 06:16:08;;;;;;;14.48;3.28;;;15.70;99.90;;;;;;5092495;28;20055;-81
2022/05/16 06:18:34;;;;;;;9.95;3.30;;;15.80;99.90;;;;;;5073851;28;20056;-81
2022/05/16 06:21:00;;;;;;;14.23;3.38;;;15.90;99.90;;;;;;5092749;28;20040;-86
2022/05/16 06:23:26;;;;;;;9.82;2.92;;;16.00;99.90;;;;;;5092750;28;20051;-82
2022/05/16 06:25:52;;;;;;;14.57;3.60;;;16.20;99.90;;;;;;5092133;28;20546;-82
2022/05/16 06:28:26;;;;;;;11.98;3.42;;;16.20;99.90;;;;;;5092709;28;20409;-82
2022/05/16 06:30:52;;;;;;;11.63;2.95;;;16.50;99.90;;;;;;5074519;28;20105;-83
2022/05/16 06:33:20;;;;;;;11.05;3.03;;;16.70;99.90;;;;;;5092126;28;20036;-82
2022/05/16 06:35:47;;;;;;;9.27;3.30;;;17.40;99.90;;;;;;5092549;28;20512;-81
2022/05/16 06:38:16;;;;;;;11.60;3.42;;;18.00;99.90;;;;;;5092531;28;20048;-82
2022/05/16 06:40:44;;;;;;;10.35;3.58;;;18.70;99.90;;;;;;5074629;28;20062;-82
2022/05/16 06:43:10;;;;;;;14.13;3.35;;;19.30;98.70;;;;;;5092595;28;20054;-82
2022/05/16 06:45:36;;;;;;;7.78;2.58;;;19.70;95.30;;;;;;5092272;28;20131;-82
2022/05/16 06:48:03;;;;;;;8.55;3.25;;;20.20;92.00;;;;;;5074482;28;20036;-84
2022/05/16 06:50:40;;;;;;;9.90;2.97;;;20.70;88.50;;;;;;5017906;28;20406;-86
2022/05/16 06:53:08;;;;;;;10.27;3.20;;;21.30;84.30;;;;;;5038386;28;20049;-82
2022/05/16 06:55:33;;;;;;;10.48;3.00;;;21.30;83.50;;;;;;5032453;28;20054;-82
2022/05/16 06:57:59;;;;;;;10.00;3.47;;;21.60;82.40;;;;;;5032249;28;20068;-82
2022/05/16 07:00:26;;;;;;;7.93;3.20;;;22.00;79.10;;;;;;5014696;28;20038;-84
2022/05/16 07:02:52;;;;;;;7.85;2.80;;;22.20;77.70;;;;;;5014931;28;20050;-81
2022/05/16 07:05:18;;;;;;;10.73;3.22;;;22.50;75.40;;;;;;5032329;28;20057;-82
2022/05/16 07:07:44;;;;;;;9.48;3.35;;;23.00;71.40;;;;;;5014420;28;20072;-82
2022/05/16 07:10:10;;;;;;;9.60;2.95;;;23.30;68.60;;;;;;5016808;28;20078;-82
2022/05/16 07:12:36;;;;;;;12.38;3.28;;;23.40;67.70;;;;;;5018719;28;20052;-81
2022/05/16 07:15:02;;;;;;;11.52;3.42;;;23.50;66.90;;;;;;5036228;28;20410;-83
2022/05/16 07:17:28;;;;;;;7.63;2.88;;;23.80;65.80;;;;;;5001210;28;20103;-80
2022/05/16 07:19:54;;;;;;;10.88;3.17;;;23.90;64.50;;;;;;5018276;28;20041;-81
2022/05/16 07:22:22;;;;;;;10.50;3.13;;;24.30;63.00;;;;;;5018352;28;20513;-80
2022/05/16 07:24:48;;;;;;;8.77;3.22;;;24.70;60.50;;;;;;5035407;28;20088;-85
2022/05/16 07:29:58;;;;;;;8.98;3.25;;;25.40;56.70;;;;;;5019480;28;20096;-80
2022/05/16 07:32:35;;;;;;;9.57;2.78;;;25.70;56.90;;;;;;5037268;28;20454;-80
2022/05/16 07:35:04;;;;;;;9.77;2.60;;;26.20;54.90;;;;;;5021938;28;20045;-79
2022/05/16 07:37:31;;;;;;;8.50;3.00;;;26.60;53.80;;;;;;5036991;28;20447;-80
2022/05/16 07:39:58;;;;;;;10.43;2.63;;;26.10;53.00;;;;;;5018769;28;20049;-80
2022/05/16 07:42:24;;;;;;;11.05;3.28;;;25.10;54.90;;;;;;5018443;28;20391;-79
2022/05/16 07:44:53;;;;;;;12.00;3.22;;;24.30;57.00;;;;;;4989225;28;20045;-81
2022/05/16 07:47:18;;;;;;;7.07;2.50;;;23.90;58.90;;;;;;5038087;28;20095;-82
2022/05/16 07:49:44;;;;;;;7.70;2.47;;;23.70;60.70;;;;;;5036359;28;20049;-81
2022/05/16 07:52:10;;;;;;;11.73;3.10;;;23.60;60.80;;;;;;5018686;28;20171;-82
2022/05/16 07:54:37;;;;;;;12.40;3.08;;;23.50;60.60;;;;;;5037424;28;20076;-81
2022/05/16 07:57:04;;;;;;;9.85;3.20;;;23.30;61.90;;;;;;5018040;28;20053;-82
2022/05/16 07:59:30;;;;;;;11.32;2.95;;;23.40;61.70;;;;;;5017779;28;20046;-84
2022/05/16 08:01:56;;;;;;;11.63;3.05;;;23.50;60.50;;;;;;5017463;28;20041;-81
2022/05/16 08:04:21;;;;;;;11.43;2.75;;;23.40;60.80;;;;;;5016528;28;20499;-81
2022/05/16 08:06:48;;;;;;;10.02;2.97;;;23.50;61.70;;;;;;5034307;28;20079;-82
2022/05/16 08:11:58;;;;;;;25.08;4.72;;;24.10;61.10;;;;;;5016898;28;20087;-81
2022/05/16 08:14:24;;;;;;;10.70;3.10;;;24.60;58.10;;;;;;5039798;28;20068;-82
2022/05/16 08:16:50;;;;;;;8.05;2.88;;;25.00;56.90;;;;;;5036441;28;20045;-82
2022/05/16 08:19:16;;;;;;;42.95;7.22;;;25.60;55.30;;;;;;5054268;28;20045;-81
2022/05/16 08:21:42;;;;;;;10.52;3.03;;;25.90;54.20;;;;;;5054287;28;20057;-81
2022/05/16 08:24:11;;;;;;;8.90;2.92;;;26.30;53.70;;;;;;5020393;28;20049;-81
2022/05/16 08:26:37;;;;;;;8.77;2.83;;;27.20;51.70;;;;;;5054648;28;20124;-81
2022/05/16 08:29:03;;;;;;;10.00;2.80;;;27.90;49.60;;;;;;5054225;28;20049;-82
2022/05/16 08:31:30;;;;;;;9.95;3.00;;;28.50;48.90;;;;;;5054011;28;20047;-82
2022/05/16 08:33:57;;;;;;;9.05;2.70;;;29.10;48.30;;;;;;5053973;28;20076;-85
2022/05/16 08:42:02;;;;;;;10.55;2.95;;;29.10;47.20;;;;;;5036328;28;20397;-82
2022/05/16 08:45:03;;;;;;;13.18;3.00;;;28.80;47.60;;;;;;5053733;28;20110;-81
2022/05/16 08:47:50;;;;;;;9.85;2.78;;;28.90;47.80;;;;;;5053498;28;20048;-82
2022/05/16 08:50:23;;;;;;;11.23;3.45;;;29.20;45.80;;;;;;5053596;28;20090;-88
2022/05/16 08:52:58;;;;;;;8.88;3.13;;;29.30;46.20;;;;;;5035900;28;20520;-82
2022/05/16 08:55:32;;;;;;;9.65;3.22;;;29.10;46.00;;;;;;5053415;28;20120;-83
2022/05/16 08:58:09;;;;;;;9.70;2.90;;;28.70;46.40;;;;;;5053118;28;20497;-83
2022/05/16 09:01:00;;;;;;;12.90;3.40;;;28.20;46.90;;;;;;5053385;28;20406;-81
2022/05/16 09:03:43;;;;;;;14.15;3.28;;;27.70;48.00;;;;;;5011288;28;20065;-82
2022/05/16 09:06:40;;;;;;;13.07;3.33;;;27.50;49.90;;;;;;4994979;28;20384;-82
2022/05/16 09:09:12;;;;;;;10.23;2.92;;;27.60;48.60;;;;;;4933852;29;20063;-81
2022/05/16 09:11:52;;;;;;;26.85;4.60;;;28.20;48.70;;;;;;4933861;29;20118;-81
2022/05/16 09:14:28;;;;;;;;;;;28.90;47.10;;;;;;4934219;29;20064;-83
2022/05/16 09:17:03;;;;;;;10.40;2.90;;;29.80;46.10;;;;;;4918102;29;19930;-82
2022/05/16 09:19:31;;;;;;;9.13;2.78;;;30.50;44.50;;;;;;4919901;29;20481;-82
2022/05/16 09:22:08;;;;;;;14.00;2.90;;;31.20;43.40;;;;;;4935541;29;20357;-82
2022/05/16 09:24:45;;;;;;;13.32;3.25;;;31.80;42.60;;;;;;4942895;29;20048;-84
2022/05/16 09:30:14;;;;;;;10.82;2.88;;;32.00;42.00;;;;;;4917989;29;20516;-84
2022/05/16 09:32:44;;;;;;;9.30;3.13;;;31.50;42.60;;;;;;4918101;29;20437;-82
2022/05/16 09:35:29;;;;;;;7.32;2.90;;;31.10;42.50;;;;;;4933364;29;20099;-82
2022/05/16 09:37:57;;;;;;;8.70;2.95;;;31.00;42.40;;;;;;4933748;29;20464;-82
2022/05/16 09:40:37;;;;;;;11.80;3.15;;;30.80;42.70;;;;;;4936158;28;20070;-83
2022/05/16 09:43:07;;;;;;;10.95;3.08;;;31.00;42.50;;;;;;4956900;28;20142;-86
2022/05/16 09:45:35;;;;;;;7.68;2.70;;;31.10;42.60;;;;;;4998741;28;20133;-82
2022/05/16 09:48:00;;;;;;;10.43;3.17;;;30.80;42.20;;;;;;5053402;28;20068;-82
2022/05/16 09:50:30;;;;;;;39.55;6.38;;;30.40;43.40;;;;;;5037081;28;20048;-84
2022/05/16 09:53:10;;;;;;;10.77;3.57;;;30.30;43.50;;;;;;5052794;28;20046;-83
2022/05/16 09:55:44;;;;;;;;;;;30.20;43.80;;;;;;5035586;28;20053;-82
2022/05/16 09:58:18;;;;;;;9.77;3.13;;;30.30;43.50;;;;;;5034680;28;19921;-83
2022/05/16 10:01:08;;;;;;;12.70;3.90;;;30.40;43.20;;;;;;5034398;28;20092;-83
2022/05/16 10:03:36;;;;;;;17.33;3.50;;;30.50;43.20;;;;;;5052832;28;20088;-84
2022/05/16 10:06:08;;;;;;;9.45;3.05;;;30.50;43.70;;;;;;5052340;28;20490;-82
2022/05/16 10:08:37;;;;;;;18.15;3.95;;;30.80;43.30;;;;;;5034945;28;20175;-84
2022/05/16 10:11:15;;;;;;;11.25;3.30;;;31.00;42.80;;;;;;5052526;28;20544;-83
2022/05/16 10:13:41;;;;;;;11.18;2.80;;;31.60;42.30;;;;;;5034724;28;20040;-83
2022/05/16 10:16:09;;;;;;;13.25;3.42;;;31.50;42.00;;;;;;5052388;28;20067;-82
2022/05/16 10:18:44;;;;;;;12.18;3.85;;;30.80;42.50;;;;;;5052759;28;20057;-82
2022/05/16 10:21:26;;;;;;;10.95;3.60;;;29.80;43.80;;;;;;5053212;28;20064;-82
2022/05/16 10:23:52;;;;;;;7.45;2.92;;;28.80;46.00;;;;;;5035861;28;20052;-82
2022/05/16 10:26:22;;;;;;;9.85;2.83;;;28.00;48.20;;;;;;5018812;28;20045;-82
2022/05/16 10:28:57;;;;;;;9.25;2.80;;;27.40;48.90;;;;;;5034747;28;20061;-83
2022/05/16 10:34:31;;;;;;;;;;;26.40;50.80;;;;;;5052819;28;20053;-82
2022/05/16 10:36:59;;;;;;;8.18;3.05;;;26.00;52.60;;;;;;5034526;28;19921;-82
2022/05/16 10:39:27;;;;;;;11.98;3.15;;;25.80;52.90;;;;;;5052213;28;20049;-82
2022/05/16 10:42:15;;;;;;;10.32;3.17;;;25.70;54.10;;;;;;5052522;28;20431;-82
2022/05/16 10:45:04;;;;;;;13.15;3.47;;;25.70;54.40;;;;;;5052144;28;20137;-82
2022/05/16 10:47:36;;;;;;;13.68;3.15;;;25.50;55.10;;;;;;5053944;28;20131;-81
2022/05/16 10:50:08;;;;;;;11.18;2.95;;;25.40;56.00;;;;;;5039288;28;20052;-82
2022/05/16 10:52:48;;;;;;;8.07;3.25;;;25.20;57.00;;;;;;5039199;28;20398;-82
2022/05/16 10:55:14;;;;;;;;;;;25.00;57.50;;;;;;5038969;28;20139;-82
2022/05/16 10:57:48;;;;;;;9.60;2.90;;;24.90;59.40;;;;;;5056662;28;19963;-81
2022/05/16 11:00:21;;;;;;;12.00;3.38;;;24.90;59.00;;;;;;5057614;28;20061;-81
2022/05/16 11:02:50;;;;;;;11.98;3.13;;;24.80;61.30;;;;;;5023476;28;20096;-81
2022/05/16 11:05:42;;;;;;;8.25;2.92;;;24.70;63.40;;;;;;5058028;28;20382;-81
2022/05/16 11:08:47;;;;;;;7.95;3.17;;;24.60;64.50;;;;;;5059875;28;20060;-82
2022/05/16 11:11:43;;;;;;;8.13;3.03;;;24.60;64.40;;;;;;5060467;28;20037;-81
2022/05/16 11:14:38;;;;;;;9.77;3.10;;;24.50;64.50;;;;;;5057058;28;20105;-81
2022/05/16 11:17:16;;;;;;;8.55;2.83;;;24.50;65.80;;;;;;5039904;28;20060;-82
2022/05/16 11:19:50;;;;;;;5.47;2.75;;;24.60;65.00;;;;;;5039742;28;20179;-81
2022/05/16 11:22:36;;;;;;;9.07;2.53;;;24.70;65.90;;;;;;5038962;28;20049;-82
2022/05/16 11:25:23;;;;;;;7.28;2.65;;;24.90;64.50;;;;;;5000247;28;20076;-83
2022/05/16 11:28:03;;;;;;;7.78;2.58;;;25.00;66.30;;;;;;4998127;28;20061;-82
2022/05/16 11:30:44;;;;;;;;;;;25.10;66.30;;;;;;5013628;28;20093;-83
2022/05/16 11:33:14;;;;;;;7.10;2.75;;;25.20;65.50;;;;;;5013063;28;19925;-83
2022/05/16 11:35:45;;;;;;;5.82;2.80;;;25.30;64.70;;;;;;5012895;28;20410;-82
2022/05/16 11:38:41;;;;;;;6.07;2.35;;;25.30;64.70;;;;;;5013115;28;20054;-82
2022/05/16 11:41:15;;;;;;;10.95;2.80;;;25.50;65.90;;;;;;5013157;28;20056;-82
2022/05/16 11:43:46;;;;;;;5.18;2.53;;;25.50;65.20;;;;;;4996769;28;20491;-83
2022/05/16 11:46:37;;;;;;;7.68;2.80;;;25.50;66.70;;;;;;5012827;28;20128;-83
2022/05/16 11:49:15;;;;;;;;;;;25.60;65.80;;;;;;4996951;28;20124;-82
2022/05/16 11:52:05;;;;;;;8.02;2.90;;;25.70;67.30;;;;;;5012867;28;19921;-82
2022/05/16 11:54:36;;;;;;;6.70;2.70;;;25.70;66.20;;;;;;5012681;28;20049;-84
2022/05/16 12:02:47;;;;;;;6.53;2.95;;;25.80;66.60;;;;;;5041158;28;20161;-82
2022/05/16 12:05:34;;;;;;;18.13;3.85;;;25.90;65.30;;;;;;5036505;28;20060;-83
2022/05/16 12:08:20;;;;;;;40.92;11.90;;;25.90;68.10;;;;;;5012145;28;20061;-81
2022/05/16 12:11:04;;;;;;;17.05;5.18;;;25.80;69.10;;;;;;5012591;28;20557;-82
2022/05/16 12:13:35;;;;;;;10.18;3.25;;;25.60;74.20;;;;;;4996131;28;20149;-81
2022/05/16 12:16:12;;;;;;;9.93;2.80;;;25.40;79.00;;;;;;5012517;28;20049;-81
2022/05/16 12:18:40;;;;;;;12.73;3.28;;;25.10;91.80;;;;;;5012328;28;20057;-82
2022/05/16 12:21:26;;;;;;;9.13;3.75;;;24.90;90.30;;;;;;4995241;28;20190;-80
2022/05/16 12:23:52;;;;;;;7.88;3.33;;;24.90;85.30;;;;;;5012076;28;20137;-83
2022/05/16 12:26:27;;;;;;;6.40;3.22;;;25.70;75.00;;;;;;4995901;28;20057;-81
2022/05/16 12:29:08;;;;;;;11.52;3.42;;;26.60;67.90;;;;;;5012194;28;20580;-82
2022/05/16 12:31:49;;;;;;;6.75;3.17;;;27.30;63.30;;;;;;5012666;28;20530;-83
2022/05/16 12:34:31;;;;;;;8.68;3.70;;;27.80;62.10;;;;;;5012343;28;20046;-82
2022/05/16 12:36:59;;;;;;;8.35;3.15;;;28.10;58.70;;;;;;5011965;28;20552;-81
2022/05/16 12:39:25;;;;;;;5.88;2.90;;;28.40;57.50;;;;;;4996081;28;20169;-81
2022/05/16 12:42:16;;;;;;;5.13;2.40;;;28.60;57.40;;;;;;5013312;28;20103;-81
2022/05/16 12:44:44;;;;;;;8.20;3.38;;;28.60;58.00;;;;;;5026056;28;20096;-81
2022/05/16 12:47:32;;;;;;;9.20;3.45;;;28.50;57.30;;;;;;5054404;28;20124;-81
2022/05/16 12:50:12;;;;;;;7.40;3.65;;;28.20;56.10;;;;;;5053999;28;20057;-81
2022/05/16 12:53:06;;;;;;;7.07;2.75;;;27.90;57.70;;;;;;5054221;28;20118;-81
2022/05/16 12:56:01;;;;;;;4.75;2.70;;;27.90;59.10;;;;;;5054115;28;20044;-81
2022/05/16 12:58:46;;;;;;;12.32;3.15;;;27.60;58.30;;;;;;5036672;28;20166;-82
2022/05/16 13:01:14;;;;;;;8.20;3.30;;;27.40;59.00;;;;;;5054701;28;20048;-81
2022/05/16 13:04:01;;;;;;;10.13;3.72;;;27.20;59.90;;;;;;5054319;28;20049;-82
2022/05/16 13:06:31;;;;;;;9.25;3.72;;;27.00;61.40;;;;;;5038132;28;20505;-81
2022/05/16 13:09:30;;;;;;;14.80;5.90;;;26.80;61.80;;;;;;5054704;28;20103;-82
2022/05/16 13:12:05;;;;;;;9.90;4.85;;;26.70;61.70;;;;;;5011717;28;20064;-82
2022/05/16 13:14:53;;;;;;;9.52;5.40;;;26.50;62.80;;;;;;5011541;28;20061;-81
2022/05/16 13:17:35;;;;;;;11.13;5.75;;;26.40;63.90;;;;;;4937092;29;20137;-81
2022/05/16 13:20:16;;;;;;;14.68;5.80;;;26.30;67.40;;;;;;4953453;29;20066;-81
2022/05/16 13:22:43;;;;;;;12.25;5.03;;;26.30;67.50;;;;;;4923417;29;20525;-82
2022/05/16 13:25:10;;;;;;;12.38;6.07;;;26.60;66.40;;;;;;4955809;29;20050;-83
2022/05/16 13:30:23;;;;;;;13.70;6.75;;;28.20;60.80;;;;;;4940553;29;20106;-82
2022/05/16 13:32:50;;;;;;;12.52;5.85;;;28.80;57.80;;;;;;4953368;29;20058;-89
2022/05/16 13:35:37;;;;;;;11.25;5.15;;;29.20;56.30;;;;;;4920902;29;20094;-82
2022/05/16 13:38:08;;;;;;;10.30;6.10;;;30.20;57.40;;;;;;4952382;29;20098;-83